createdAt,value
2018-12-18T00:02:18.778Z,99.90
2018-12-18T00:04:49.700Z,99.90
2018-12-18T00:07:29.545Z,99.90
2018-12-18T00:10:03.355Z,99.90
2018-12-18T00:12:51.654Z,99.90
2018-12-18T00:18:22.812Z,99.90
2018-12-18T00:21:04.585Z,99.90
2018-12-18T00:23:54.876Z,99.90
2018-12-18T00:26:42.527Z,99.90
2018-12-18T00:29:11.849Z,99.90
2018-12-18T00:31:51.563Z,99.90
2018-12-18T00:34:31.310Z,99.90
2018-12-18T00:37:04.605Z,99.90
2018-12-18T00:39:38.393Z,99.90
2018-12-18T00:42:09.017Z,99.90
2018-12-18T00:44:42.162Z,99.90
2018-12-18T00:47:29.778Z,99.90
2018-12-18T00:50:03.653Z,99.90
2018-12-18T00:52:32.799Z,99.90
2018-12-18T00:55:19.011Z,99.90
2018-12-18T00:57:59.298Z,99.90
2018-12-18T01:00:34.650Z,99.90
2018-12-18T01:03:14.898Z,99.90
2018-12-18T01:05:45.703Z,99.90
2018-12-18T01:08:26.532Z,99.90
2018-12-18T01:11:06.295Z,99.90
2018-12-18T01:13:46.140Z,99.90
2018-12-18T01:16:26.050Z,99.90
2018-12-18T01:18:59.238Z,99.90
2018-12-18T01:21:33.073Z,99.90
2018-12-18T01:24:13.518Z,99.90
2018-12-18T01:26:53.530Z,99.90
2018-12-18T01:29:24.426Z,99.90
2018-12-18T01:32:04.186Z,99.90
2018-12-18T01:34:43.985Z,99.90
2018-12-18T01:37:17.136Z,99.90
2018-12-18T01:40:07.014Z,99.90
2018-12-18T01:42:46.545Z,99.90
2018-12-18T01:45:26.459Z,99.90
2018-12-18T01:48:13.031Z,99.90
2018-12-18T01:50:53.223Z,99.90
2018-12-18T01:53:32.931Z,99.90
2018-12-18T01:56:13.315Z,99.90
2018-12-18T01:58:44.401Z,99.90
2018-12-18T02:01:18.428Z,99.90
2018-12-18T02:03:51.965Z,99.90
2018-12-18T02:06:32.232Z,99.90
2018-12-18T02:09:06.263Z,99.90
2018-12-18T02:11:39.321Z,99.90
2018-12-18T02:14:19.468Z,99.90
2018-12-18T02:16:52.888Z,99.90
2018-12-18T02:19:26.732Z,99.90
2018-12-18T02:22:06.995Z,99.90
2018-12-18T02:24:40.356Z,99.90
2018-12-18T02:27:11.906Z,99.90
2018-12-18T02:29:42.666Z,99.90
2018-12-18T02:32:16.241Z,99.90
2018-12-18T02:34:56.272Z,99.90
2018-12-18T02:37:29.515Z,99.90
2018-12-18T02:40:00.799Z,99.90
2018-12-18T02:42:34.692Z,99.90
2018-12-18T02:45:14.971Z,99.90
2018-12-18T02:47:48.496Z,99.90
2018-12-18T02:50:18.090Z,99.90
2018-12-18T02:53:01.800Z,99.90
2018-12-18T02:55:39.151Z,99.90
2018-12-18T02:58:13.419Z,99.90
2018-12-18T03:00:53.565Z,99.90
2018-12-18T03:03:33.366Z,99.90
2018-12-18T03:06:06.429Z,99.90
2018-12-18T03:08:37.674Z,99.90
2018-12-18T03:11:11.048Z,99.90
2018-12-18T03:13:44.399Z,99.90
2018-12-18T03:16:19.110Z,99.90
2018-12-18T03:18:48.491Z,99.90
2018-12-18T03:21:19.477Z,99.90
2018-12-18T03:23:52.945Z,99.90
2018-12-18T03:26:24.108Z,99.90
2018-12-18T03:28:55.331Z,99.90
2018-12-18T03:43:29.442Z,99.90
2018-12-18T03:46:09.037Z,99.90
2018-12-18T03:48:42.373Z,99.90
2018-12-18T03:51:22.688Z,99.90
2018-12-18T03:53:53.903Z,99.90
2018-12-18T03:56:27.605Z,99.90
2018-12-18T03:59:09.847Z,99.90
2018-12-18T04:01:49.509Z,99.90
2018-12-18T04:04:22.972Z,99.90
2018-12-18T04:07:03.414Z,99.90
2018-12-18T04:09:37.359Z,99.90
2018-12-18T04:12:15.607Z,99.90
2018-12-18T04:15:06.175Z,99.90
2018-12-18T04:17:46.491Z,99.90
2018-12-18T04:20:19.811Z,99.90
2018-12-18T04:22:57.644Z,99.90
2018-12-18T04:25:27.357Z,99.90
2018-12-18T04:28:01.250Z,99.90
2018-12-18T04:30:34.961Z,99.90
2018-12-18T04:33:08.854Z,99.90
2018-12-18T04:35:48.947Z,99.90
2018-12-18T04:38:19.804Z,99.90
2018-12-18T04:40:53.813Z,99.90
2018-12-18T04:43:23.093Z,99.90
2018-12-18T04:46:13.130Z,99.90
2018-12-18T04:48:46.926Z,99.90
2018-12-18T04:51:20.553Z,99.90
2018-12-18T04:54:00.806Z,99.90
2018-12-18T04:56:40.394Z,99.90
2018-12-18T04:59:11.273Z,99.90
2018-12-18T05:01:45.240Z,99.90
2018-12-18T05:04:22.966Z,99.90
2018-12-18T05:06:56.636Z,99.90
2018-12-18T05:09:28.187Z,99.90
2018-12-18T05:11:59.019Z,99.90
2018-12-18T05:14:32.452Z,99.90
2018-12-18T05:17:06.052Z,99.90
2018-12-18T05:19:35.341Z,99.90
2018-12-18T05:22:06.055Z,99.90
2018-12-18T05:24:39.530Z,99.90
2018-12-18T05:27:19.474Z,99.90
2018-12-18T05:29:52.812Z,99.90
2018-12-18T05:32:22.070Z,99.90
2018-12-18T05:34:56.551Z,99.90
2018-12-18T05:37:34.675Z,99.90
2018-12-18T05:40:05.713Z,99.90
2018-12-18T05:42:36.415Z,99.90
2018-12-18T05:45:09.661Z,99.90
2018-12-18T05:47:50.908Z,99.90
2018-12-18T05:50:21.656Z,99.90
2018-12-18T05:55:55.733Z,99.90
2018-12-18T05:58:26.799Z,99.90
2018-12-18T06:00:58.402Z,99.90
2018-12-18T06:03:35.679Z,99.90
2018-12-18T06:06:24.234Z,99.90
2018-12-18T06:08:55.742Z,99.90
2018-12-18T06:11:29.161Z,99.90
2018-12-18T06:14:02.897Z,99.90
2018-12-18T06:16:36.706Z,99.90
2018-12-18T06:19:07.961Z,99.90
2018-12-18T06:21:54.394Z,99.90
2018-12-18T06:24:32.176Z,99.90
2018-12-18T06:27:12.316Z,99.90
2018-12-18T06:29:43.344Z,99.90
2018-12-18T06:32:22.973Z,99.90
2018-12-18T06:35:02.758Z,99.90
2018-12-18T06:37:33.525Z,99.90
2018-12-18T06:40:07.039Z,99.90
2018-12-18T06:42:40.702Z,99.90
2018-12-18T06:45:20.838Z,99.90
2018-12-18T06:48:00.514Z,99.90
2018-12-18T06:53:40.317Z,99.90
2018-12-18T06:56:20.683Z,99.90
2018-12-18T07:01:54.427Z,99.90
2018-12-18T07:04:44.533Z,99.90
2018-12-18T07:07:24.741Z,99.90
2018-12-18T07:13:04.365Z,99.90
2018-12-18T07:15:33.651Z,99.90
2018-12-18T07:18:13.348Z,99.90
2018-12-18T07:20:53.189Z,99.90
2018-12-18T07:23:26.659Z,99.90
2018-12-18T07:26:07.623Z,99.90
2018-12-18T07:28:40.183Z,99.90
2018-12-18T07:31:20.342Z,99.90
2018-12-18T07:34:00.185Z,99.90
2018-12-18T07:36:30.988Z,99.90
2018-12-18T07:39:19.132Z,99.90
2018-12-18T07:41:59.742Z,99.90
2018-12-18T07:44:34.147Z,99.90
2018-12-18T07:47:14.132Z,99.90
2018-12-18T07:49:55.117Z,99.90
2018-12-18T07:52:26.606Z,99.90
2018-12-18T07:55:05.343Z,99.90
2018-12-18T07:57:44.864Z,99.90
2018-12-18T08:00:24.510Z,99.90
2018-12-18T08:02:55.127Z,99.90
2018-12-18T08:11:40.534Z,99.90
2018-12-18T08:14:28.780Z,99.90
2018-12-18T08:20:12.291Z,99.90
2018-12-18T08:22:47.432Z,99.90
2018-12-18T08:25:28.348Z,99.90
2018-12-18T08:34:04.913Z,99.90
2018-12-18T08:36:45.277Z,99.90
2018-12-18T08:39:18.993Z,99.70
2018-12-18T08:41:53.923Z,99.80
2018-12-18T08:44:29.126Z,99.30
2018-12-18T08:47:03.799Z,98.10
2018-12-18T08:49:51.334Z,97.40
2018-12-18T08:52:22.143Z,96.80
2018-12-18T08:55:10.761Z,96.40
2018-12-18T08:57:52.263Z,97.50
2018-12-18T09:03:43.118Z,98.00
2018-12-18T09:06:33.297Z,98.10
2018-12-18T09:09:05.433Z,98.20
2018-12-18T09:11:42.861Z,98.90
2018-12-18T09:14:23.214Z,99.00
2018-12-18T09:17:04.353Z,98.40
2018-12-18T09:22:48.526Z,99.00
2018-12-18T09:25:23.844Z,98.10
2018-12-18T09:28:00.047Z,98.20
2018-12-18T09:30:48.754Z,98.60
2018-12-18T09:33:22.882Z,97.80
2018-12-18T09:35:59.043Z,97.10
2018-12-18T09:38:38.314Z,94.40
2018-12-18T09:41:23.800Z,91.50
2018-12-18T09:44:10.405Z,91.40
2018-12-18T09:46:51.044Z,89.40
2018-12-18T09:49:31.098Z,90.00
2018-12-18T09:55:12.331Z,90.90
2018-12-18T09:57:56.928Z,91.70
2018-12-18T10:00:30.261Z,90.30
2018-12-18T10:03:04.168Z,91.00
2018-12-18T10:05:44.387Z,91.20
2018-12-18T10:08:23.996Z,92.50
2018-12-18T10:13:49.656Z,91.30
2018-12-18T10:16:27.321Z,91.10
2018-12-18T10:19:07.516Z,89.60
2018-12-18T10:21:47.160Z,90.40
2018-12-18T10:24:35.380Z,85.30
2018-12-18T10:27:09.289Z,86.90
2018-12-18T10:29:49.248Z,84.90
2018-12-18T10:32:22.388Z,81.40
2018-12-18T10:35:03.471Z,80.80
2018-12-18T10:37:51.686Z,78.70
2018-12-18T10:40:31.305Z,77.70
2018-12-18T10:43:15.638Z,77.00
2018-12-18T10:45:55.227Z,75.80
2018-12-18T10:48:35.146Z,74.10
2018-12-18T10:51:06.145Z,73.90
2018-12-18T10:53:41.904Z,72.70
2018-12-18T10:56:23.295Z,71.30
2018-12-18T10:58:57.579Z,70.20
2018-12-18T11:01:48.650Z,73.10
2018-12-18T11:07:16.116Z,73.80
2018-12-18T11:09:49.398Z,72.80
2018-12-18T11:12:26.319Z,68.70
2018-12-18T11:15:06.499Z,68.10
2018-12-18T11:17:46.290Z,68.60
2018-12-18T11:20:18.665Z,68.50
2018-12-18T11:22:59.186Z,68.10
2018-12-18T11:25:40.223Z,68.00
2018-12-18T11:28:15.335Z,66.90
2018-12-18T11:33:54.660Z,63.50
2018-12-18T11:36:34.566Z,62.50
2018-12-18T11:39:08.242Z,60.80
2018-12-18T11:41:41.843Z,61.10
2018-12-18T11:44:11.191Z,59.90
2018-12-18T11:46:44.423Z,59.60
2018-12-18T11:49:14.201Z,60.20
2018-12-18T11:51:49.131Z,59.60
2018-12-18T11:54:20.381Z,59.70
2018-12-18T11:57:01.071Z,59.90
2018-12-18T11:59:41.043Z,60.90
2018-12-18T12:02:15.871Z,62.10
2018-12-18T12:05:03.222Z,61.40
2018-12-18T12:07:44.271Z,62.00
2018-12-18T12:10:25.244Z,62.70
2018-12-18T12:12:57.739Z,61.80
2018-12-18T12:15:38.105Z,60.70
2018-12-18T12:18:09.058Z,61.10
2018-12-18T12:20:42.657Z,60.50
2018-12-18T12:23:16.361Z,61.10
2018-12-18T12:25:55.959Z,63.10
2018-12-18T12:28:29.323Z,63.50
2018-12-18T12:31:17.462Z,63.50
2018-12-18T12:33:51.182Z,63.40
2018-12-18T12:36:40.356Z,63.90
2018-12-18T12:39:32.017Z,64.80
2018-12-18T12:42:04.979Z,66.00
2018-12-18T12:44:45.500Z,66.00
2018-12-18T12:47:32.559Z,68.10
2018-12-18T12:50:06.255Z,67.50
2018-12-18T12:55:49.278Z,69.20
2018-12-18T12:58:28.274Z,70.10
2018-12-18T13:01:16.792Z,69.90
2018-12-18T13:03:49.922Z,68.00
2018-12-18T13:06:36.202Z,66.90
2018-12-18T13:09:20.830Z,67.30
2018-12-18T13:12:02.520Z,67.30
2018-12-18T13:14:42.407Z,67.50
2018-12-18T13:17:24.398Z,68.70
2018-12-18T13:20:02.064Z,69.90
2018-12-18T13:22:36.707Z,72.50
2018-12-18T13:25:10.159Z,72.80
2018-12-18T13:30:49.515Z,71.90
2018-12-18T13:33:20.701Z,72.70
2018-12-18T13:36:08.825Z,73.60
2018-12-18T13:38:49.214Z,74.50
2018-12-18T13:47:34.082Z,71.80
2018-12-18T13:50:20.770Z,72.90
2018-12-18T13:53:00.769Z,73.30
2018-12-18T13:55:36.716Z,74.20
2018-12-18T13:58:16.721Z,75.20
2018-12-18T14:00:57.309Z,75.80
2018-12-18T14:03:32.005Z,76.30
2018-12-18T14:06:12.411Z,76.70
2018-12-18T14:08:52.880Z,79.10
2018-12-18T14:11:33.306Z,79.40
2018-12-18T14:14:21.402Z,80.70
2018-12-18T14:19:49.670Z,82.20
2018-12-18T14:22:29.288Z,82.70
2018-12-18T14:25:09.049Z,84.50
2018-12-18T14:27:48.956Z,85.40
2018-12-18T14:30:23.845Z,86.30
2018-12-18T14:32:55.709Z,87.50
2018-12-18T14:35:33.575Z,88.10
2018-12-18T14:38:13.931Z,89.00
2018-12-18T14:40:54.174Z,89.80
2018-12-18T14:43:34.513Z,89.60
2018-12-18T14:46:15.324Z,86.50
2018-12-18T14:49:00.043Z,86.10
2018-12-18T14:51:33.161Z,86.70
2018-12-18T14:54:11.769Z,87.20
2018-12-18T15:29:20.724Z,91.60
2018-12-18T15:32:02.494Z,91.60
2018-12-18T15:34:43.401Z,91.40
2018-12-18T15:37:14.227Z,91.50
2018-12-18T15:39:47.846Z,91.30
2018-12-18T15:42:19.142Z,91.30
2018-12-18T15:44:52.677Z,91.80
2018-12-18T15:50:28.968Z,91.40
2018-12-18T15:53:08.750Z,91.70
2018-12-18T15:58:49.713Z,91.60
2018-12-18T16:04:26.848Z,91.00
2018-12-18T16:06:58.081Z,90.60
2018-12-18T16:18:26.851Z,90.60
2018-12-18T16:21:13.510Z,91.10
2018-12-18T16:23:51.313Z,91.20
2018-12-18T16:26:41.792Z,91.30
2018-12-18T16:29:30.368Z,91.60
2018-12-18T16:32:08.407Z,91.90
2018-12-18T16:34:52.775Z,92.00
2018-12-18T16:37:40.579Z,91.80
2018-12-18T16:43:31.429Z,92.80
2018-12-18T16:46:07.409Z,92.80
2018-12-18T16:48:42.192Z,93.20
2018-12-18T16:51:20.168Z,93.50
2018-12-18T16:53:53.895Z,93.80
2018-12-18T16:56:41.554Z,93.50
2018-12-18T17:05:16.016Z,94.70
2018-12-18T17:07:47.976Z,95.00
2018-12-18T17:10:28.048Z,94.70
2018-12-18T17:13:06.728Z,95.00
2018-12-18T17:15:54.896Z,94.90
2018-12-18T17:18:28.954Z,95.40
2018-12-18T17:21:10.074Z,95.20
2018-12-18T17:23:40.936Z,95.80
2018-12-18T17:26:27.629Z,96.90
2018-12-18T17:29:08.173Z,98.10
2018-12-18T17:34:34.001Z,99.30
2018-12-18T17:37:13.938Z,99.70
2018-12-18T17:39:57.520Z,99.90
2018-12-18T17:42:31.445Z,99.90
2018-12-18T17:45:09.540Z,99.90
2018-12-18T17:47:50.723Z,99.90
2018-12-18T17:50:30.601Z,99.90
2018-12-18T17:56:07.699Z,99.90
2018-12-18T17:58:39.780Z,99.90
2018-12-18T18:01:11.025Z,99.90
2018-12-18T18:03:43.323Z,99.90
2018-12-18T18:09:23.758Z,99.90
2018-12-18T18:12:12.158Z,99.90
2018-12-18T18:14:46.055Z,99.90
2018-12-18T18:17:26.274Z,99.90
2018-12-18T18:19:59.911Z,99.90
2018-12-18T18:22:32.738Z,99.90
2018-12-18T18:25:06.295Z,99.90
2018-12-18T18:27:47.087Z,99.90
2018-12-18T18:30:24.944Z,99.90
2018-12-18T18:32:57.133Z,98.40
2018-12-18T18:35:38.428Z,98.80
2018-12-18T18:38:10.502Z,98.50
2018-12-18T18:40:44.216Z,98.60
2018-12-18T18:43:14.944Z,98.20
2018-12-18T18:48:54.461Z,98.10
2018-12-18T18:51:27.682Z,97.90
2018-12-18T18:54:08.055Z,98.10
2018-12-18T18:56:40.769Z,97.20
2018-12-18T18:59:14.290Z,97.00
2018-12-18T19:01:54.662Z,96.80
2018-12-18T19:04:34.839Z,96.60
2018-12-18T19:07:14.465Z,97.00
2018-12-18T19:09:54.219Z,97.70
2018-12-18T19:12:25.007Z,96.80
2018-12-18T19:15:04.858Z,97.90
2018-12-18T19:17:38.211Z,97.60
2018-12-18T19:20:11.886Z,97.20
2018-12-18T19:22:44.761Z,97.10
2018-12-18T19:25:21.055Z,98.00
2018-12-18T19:28:04.628Z,98.10
2018-12-18T19:33:36.796Z,98.30
2018-12-18T19:38:59.641Z,97.10
2018-12-18T19:41:40.674Z,97.20
2018-12-18T19:44:28.761Z,97.20
2018-12-18T19:46:58.203Z,96.30
2018-12-18T19:52:47.255Z,96.00
2018-12-18T20:01:37.387Z,96.70
2018-12-18T20:04:08.580Z,97.30
2018-12-18T20:06:42.130Z,97.80
2018-12-18T20:09:20.915Z,97.50
2018-12-18T20:11:52.416Z,97.40
2018-12-18T20:14:32.966Z,97.40
2018-12-18T20:17:04.049Z,97.70
2018-12-18T20:19:43.924Z,98.20
2018-12-18T20:22:14.853Z,98.30
2018-12-18T20:24:48.097Z,98.60
2018-12-18T20:30:17.816Z,99.80
2018-12-18T20:32:57.904Z,99.90
2018-12-18T20:35:35.940Z,99.90
2018-12-18T20:38:22.694Z,99.90
2018-12-18T20:41:02.246Z,99.90
2018-12-18T20:43:32.997Z,99.90
2018-12-18T20:46:06.580Z,99.90
2018-12-18T20:48:55.144Z,99.90
2018-12-18T20:51:35.559Z,99.90
2018-12-18T20:54:25.711Z,99.90
2018-12-18T21:00:04.333Z,99.90
2018-12-18T21:02:44.250Z,99.90
2018-12-18T21:05:24.014Z,99.90
2018-12-18T21:08:03.807Z,99.90
2018-12-18T21:10:54.187Z,99.90
2018-12-18T21:13:30.741Z,99.90
2018-12-18T21:16:11.179Z,99.90
2018-12-18T21:18:51.388Z,99.90
2018-12-18T21:21:31.162Z,99.90
2018-12-18T21:24:10.888Z,99.90
2018-12-18T21:29:56.094Z,99.90
2018-12-18T21:32:27.685Z,99.90
2018-12-18T21:35:01.107Z,99.90
2018-12-18T21:37:35.101Z,99.90
2018-12-18T21:40:15.421Z,99.90
2018-12-18T21:42:55.239Z,99.90
2018-12-18T21:45:35.208Z,99.90
2018-12-18T21:48:16.421Z,99.90
2018-12-18T21:53:59.832Z,99.90
2018-12-18T21:56:33.792Z,99.90
2018-12-18T21:59:16.021Z,99.90
2018-12-18T22:04:53.621Z,99.90
2018-12-18T22:07:30.678Z,99.90
2018-12-18T22:10:00.095Z,99.90
2018-12-18T22:12:31.133Z,99.90
2018-12-18T22:15:01.920Z,99.90
2018-12-18T22:17:35.150Z,99.90
2018-12-18T22:20:05.551Z,99.90
2018-12-18T22:22:36.744Z,99.90
2018-12-18T22:25:16.647Z,99.90
2018-12-18T22:27:56.909Z,99.90
2018-12-18T22:30:37.228Z,99.90
2018-12-18T22:33:12.230Z,99.90
2018-12-18T22:35:52.268Z,99.90
2018-12-18T22:38:23.072Z,99.90
2018-12-18T22:41:02.883Z,99.90
2018-12-18T22:43:33.806Z,99.90
2018-12-18T22:46:03.438Z,99.90
2018-12-18T22:51:46.085Z,99.90
2018-12-18T22:54:29.766Z,99.90
2018-12-18T22:57:11.674Z,99.90
2018-12-18T22:59:51.600Z,99.90
2018-12-18T23:05:27.587Z,99.90
2018-12-18T23:07:58.926Z,99.90
2018-12-18T23:10:32.242Z,99.90
2018-12-18T23:13:01.715Z,99.90
2018-12-18T23:15:41.424Z,99.90
2018-12-18T23:18:22.448Z,99.90
2018-12-18T23:20:55.788Z,99.90
2018-12-18T23:23:36.173Z,99.90
2018-12-18T23:26:16.197Z,99.90
2018-12-18T23:31:56.253Z,99.90
2018-12-18T23:34:36.478Z,99.90
2018-12-18T23:37:07.545Z,99.90
2018-12-18T23:39:40.755Z,99.80
2018-12-18T23:42:11.490Z,98.50
2018-12-18T23:44:42.395Z,97.90
2018-12-18T23:47:32.743Z,98.50
2018-12-18T23:50:23.571Z,98.60
2018-12-18T23:52:57.353Z,98.60
2018-12-18T23:55:41.860Z,97.50
2018-12-18T23:58:21.626Z,97.10
